Flight Track Log - Related Links

Times and Time Zones

All times are in EDT time to prevent confusion due to time zone crossing. See the BBA4 flight status page for this flight to view local times or setup timezone preferences in your user account.

Time Position Orientation Groundspeed Altitude Reporting Facility
EDT Latitude Longitude Course Direction KTS MPH feet Rate Location/Type
Wed 12:04:32 PM 43.7740 -79.4280 88° East 199 229 1,300  Level FlightAware ADS-B
Wed 12:05:20 PM 43.7740 -79.3550 90° East 217 250 1,700 554 Climbing FlightAware ADS-B
Wed 12:05:37 PM 43.7740 -79.3250 90° East 215 247 1,900 571 Climbing FlightAware ADS-B
Wed 12:06:02 PM 43.7740 -79.2910 90° East 218 251 2,100 800 Climbing FlightAware ADS-B
Wed 12:06:37 PM 43.7770 -79.2400 85° East 230 265 2,700 646 Climbing FlightAware ADS-B
Wed 12:07:07 PM 43.7860 -79.1990 73° East 220 253 2,800 109 Climbing FlightAware ADS-B
Wed 12:07:32 PM 43.8020 -79.1730 50° Northeast 258 297 2,800  Level FlightAware ADS-B
Wed 12:07:57 PM 43.8240 -79.1370 50° Northeast 276 318 2,800 873 Level FlightAware ADS-B
Wed 12:08:27 PM 43.8420 -79.0930 60° Northeast 241 277 3,600 1,333 Climbing FlightAware ADS-B
Wed 12:08:42 PM 43.8460 -79.0710 76° East 243 280 3,800 1,067 Climbing FlightAware ADS-B
Wed 12:09:12 PM 43.8480 -79.0220 87° East 284 327 4,400 1,800 Climbing FlightAware ADS-B
Wed 12:09:42 PM 43.8490 -78.9630 89° East 295 339 5,600 3,508 Climbing FlightAware ADS-B
Wed 12:10:17 PM 43.8490 -78.8950 90° East 309 356 8,200 3,506 Climbing FlightAware ADS-B
Wed 12:12:40 PM 43.9310 -78.6060 68° East 394 453 16,000 3,084 Climbing FlightAware ADS-B
Wed 12:13:51 PM 43.9930 -78.4450 62° Northeast 425 489 19,200 2,842 Climbing FlightAware ADS-B
Wed 12:14:34 PM 44.0340 -78.3390 62° Northeast 438 504 21,400 2,848 Climbing FlightAware ADS-B
Wed 12:15:30 PM 44.0880 -78.2000 62° Northeast 452 520 23,900 2,694 Climbing FlightAware ADS-B
Wed 12:16:12 PM 44.1300 -78.0810 64° Northeast 470 541 25,800 2,561 Climbing FlightAware ADS-B
Wed 12:16:52 PM 44.1600 -77.9760 68° East 479 551 27,400 2,400 Climbing FlightAware ADS-B
Wed 12:17:32 PM 44.1940 -77.8530 69° East 493 567 29,000 2,400 Climbing FlightAware ADS-B
Wed 12:18:17 PM 44.2320 -77.7170 69° East 500 575 30,800 2,325 Climbing FlightAware ADS-B
Wed 12:18:52 PM 44.2600 -77.6140 69° East 507 583 32,100 1,760 Climbing FlightAware ADS-B
Wed 12:19:32 PM 44.2940 -77.4910 69° East 507 583 33,000 200 Climbing FlightAware ADS-B
Wed 12:23:22 PM 44.4680 -76.8490 69° East 500 575 33,000  Level FlightAware ADS-B
Wed 12:24:05 PM 44.5160 -76.6670 70° East 502 578 33,000  Level FlightAware ADS-B
Wed 12:24:47 PM 44.5500 -76.5370 70° East 498 573 33,000  Level FlightAware ADS-B
Wed 12:25:23 PM 44.5780 -76.4310 70° East 499 574 33,000  Level FlightAware ADS-B
Wed 12:26:05 PM 44.6140 -76.2950 70° East 502 578 33,000  Level FlightAware ADS-B
Wed 12:26:41 PM 44.6440 -76.1840 69° East 502 578 33,000  Level FlightAware ADS-B
Wed 12:27:22 PM 44.6790 -76.0650 67° East 504 580 33,000  Level FlightAware ADS-B
Wed 12:28:02 PM 44.7150 -75.9410 68° East 505 581 33,000  Level FlightAware ADS-B
Wed 12:29:10 PM 44.7770 -75.7370 67° East 502 578 33,000  Level FlightAware ADS-B
Wed 12:29:56 PM 44.8210 -75.6060 65° Northeast 502 578 33,000 -767 Level FlightAware ADS-B
Wed 12:30:36 PM 44.8600 -75.4870 65° Northeast 501 577 31,900 -2,175 Descending FlightAware ADS-B
Wed 12:31:16 PM 44.8990 -75.3670 65° Northeast 501 577 30,100 -2,682 Descending FlightAware ADS-B
Wed 12:32:01 PM 44.9420 -75.2360 65° Northeast 484 557 28,100 -2,612 Descending FlightAware ADS-B
Wed 12:32:41 PM 44.9800 -75.1220 65° Northeast 474 545 26,400 -2,471 Descending FlightAware ADS-B
Wed 12:33:26 PM 45.0210 -74.9960 65° Northeast 464 534 24,600 -2,457 Descending FlightAware ADS-B
Wed 12:34:26 PM 45.0730 -74.8320 66° East 450 518 22,100 -2,400 Descending FlightAware ADS-B
Wed 12:35:06 PM 45.1080 -74.7250 65° Northeast 440 506 20,600 -2,320 Descending FlightAware ADS-B
Wed 12:35:41 PM 45.1360 -74.6350 66° East 425 489 19,200 -2,325 Descending FlightAware ADS-B
Wed 12:36:26 PM 45.1720 -74.5220 66° East 413 475 17,500 -2,260 Descending FlightAware ADS-B
Wed 12:36:58 PM 45.1960 -74.4480 65° Northeast 401 461 16,300 -2,083 Descending FlightAware ADS-B
Wed 12:37:38 PM 45.2320 -74.3570 61° Northeast 377 434 15,000 -1,875 Descending FlightAware ADS-B
Wed 12:38:18 PM 45.2670 -74.2750 59° Northeast 347 399 13,800 -1,694 Descending FlightAware ADS-B
Wed 12:39:03 PM 45.3030 -74.1910 59° Northeast 316 364 12,600 -1,520 Descending FlightAware ADS-B
Wed 12:39:33 PM 45.3250 -74.1390 59° Northeast 313 360 11,900 -1,520 Descending FlightAware ADS-B
Wed 12:40:18 PM 45.3610 -74.0620 56° Northeast 308 354 10,700 -1,533 Descending FlightAware ADS-B
Wed 12:41:03 PM 45.4060 -73.9990 44° Northeast 291 335 9,600 -1,457 Descending FlightAware ADS-B
Wed 12:41:28 PM 45.4300 -73.9660 44° Northeast 290 334 9,000 -1,418 Descending FlightAware ADS-B
Wed 12:41:58 PM 45.4610 -73.9260 42° Northeast 288 331 8,300 -1,418 Descending FlightAware ADS-B
Wed 12:42:23 PM 45.4860 -73.8940 42° Northeast 288 331 7,700 -1,418 Descending FlightAware ADS-B
Wed 12:42:53 PM 45.5160 -73.8540 43° Northeast 291 335 7,000 -1,400 Descending FlightAware ADS-B
Wed 12:43:23 PM 45.5460 -73.8160 42° Northeast 288 331 6,300 -1,263 Descending FlightAware ADS-B
Wed 12:43:50 PM 45.5700 -73.7840 43° Northeast 281 323 5,800 -1,320 Descending FlightAware ADS-B
Wed 12:44:13 PM 45.5940 -73.7520 43° Northeast 265 305 5,200 -1,125 Descending FlightAware ADS-B
Wed 12:44:38 PM 45.6160 -73.7230 43° Northeast 249 287 4,900 -321 Descending FlightAware ADS-B
Wed 12:45:09 PM 45.6420 -73.6890 42° Northeast 249 287 4,900  Level FlightAware ADS-B
Wed 12:45:28 PM 45.6600 -73.6660 42° Northeast 240 276 4,900  Level FlightAware ADS-B
Wed 12:46:04 PM 45.6870 -73.6300 43° Northeast 218 251 4,900  Level FlightAware ADS-B
Wed 12:46:24 PM 45.7030 -73.6110 40° Northeast 223 257 4,900  Level FlightAware ADS-B
Wed 12:46:38 PM 45.7130 -73.5940 50° Northeast 229 264 4,900  Level FlightAware ADS-B
Wed 12:46:48 PM 45.7170 -73.5800 68° East 236 272 4,900 -343 Level FlightAware ADS-B
Wed 12:47:13 PM 45.7060 -73.5440 114° Southeast 231 266 4,700 -783 Descending FlightAware ADS-B
Wed 12:47:34 PM 45.6870 -73.5330 158° South 217 250 4,300 -1,161 Descending FlightAware ADS-B
Wed 12:47:44 PM 45.6780 -73.5290 163° South 205 236 4,100 -600 Descending FlightAware ADS-B
Wed 12:48:14 PM 45.6520 -73.5190 165° South 183 211 3,900 -300 Descending FlightAware ADS-B
Wed 12:48:24 PM 45.6430 -73.5190 180° South 176 203 3,900  Level FlightAware ADS-B
Wed 12:48:43 PM 45.6270 -73.5260 197° South 172 198 3,900  Level FlightAware ADS-B
Wed 12:48:58 PM 45.6160 -73.5340 207° Southwest 173 199 3,900  Level FlightAware ADS-B
Wed 12:49:28 PM 45.5980 -73.5550 219° Southwest 171 197 3,900 -764 Level FlightAware ADS-B
Wed 12:49:53 PM 45.5840 -73.5740 224° Southwest 165 190 3,200 -1,500 Descending FlightAware ADS-B
Wed 12:50:08 PM 45.5750 -73.5860 223° Southwest 163 188 2,900 -900 Descending FlightAware ADS-B
Wed 12:50:33 PM 45.5620 -73.6060 227° Southwest 159 183 2,600 -1,091 Descending FlightAware ADS-B
Wed 12:51:03 PM 45.5450 -73.6280 222° Southwest 172 198 1,900 -1,500 Descending FlightAware ADS-B
Wed 12:51:13 PM 45.5390 -73.6350 219° Southwest 174 200 1,600 -1,200 Descending FlightAware ADS-B
Wed 12:51:38 PM 45.5240 -73.6540 222° Southwest 165 190 1,200 -873 Descending FlightAware ADS-B
Wed 12:52:08 PM 45.5080 -73.6750 223° Southwest 137 158 800 -750 Descending FlightAware ADS-B
Wed 12:52:18 PM 45.5040 -73.6800 221° Southwest 120 138 700 -600 Descending FlightAware ADS-B
Wed 12:52:48 PM 45.4910 -73.6970 223° Southwest 114 131 400 -610 Descending FlightAware ADS-B
Wed 12:53:17 PM 45.4810 -73.7100 222° Southwest 103 119 100 -529 Descending FlightAware ADS-B
Wed 12:53:22 PM 45.4790 -73.7140 235° Southwest 103 119 100  Level FlightAware ADS-B
Wed 12:53:53 PM 45.4710 -73.7240 221° Southwest 36 41 -194 Descending FlightAware ADS-B
Wed 12:54:23 PM 45.4680 -73.7270 215° Southwest 9 10  Level FlightAware ADS-B
Wed 12:54:43 PM 45.4690 -73.7280 325° Northwest 14 16  Level FlightAware ADS-B
Wed 12:55:08 PM 45.4710 -73.7270 19° North 13 15  Level FlightAware ADS-B
Wed 12:55:33 PM 45.4730 -73.7260 19° North 20 23  Level FlightAware ADS-B
Wed 12:56:03 PM 45.4750 -73.7220 55° Northeast 30 35  Level FlightAware ADS-B
Wed 12:56:18 PM 45.4770 -73.7200 35° Northeast 22 25  Level FlightAware ADS-B
Wed 12:56:33 PM 45.4780 -73.7190 35° Northeast 7 8  Level FlightAware ADS-B
Wed 12:56:44 PM 45.4780 -73.7200 270° West 11 13  Level FlightAware ADS-B

Login

Don't have an account? Register now (free) for customized features, flight alerts, and more!